sensor_id;sensor_type;location;lat;lon;timestamp;temperature;humidity
23156;DHT22;11746;50.876;4.246;2023-05-10T00:00:28;13.10;99.90
23156;DHT22;11746;50.876;4.246;2023-05-10T00:02:54;13.20;99.90
23156;DHT22;11746;50.876;4.246;2023-05-10T00:05:20;13.20;99.90
23156;DHT22;11746;50.876;4.246;2023-05-10T00:07:46;13.20;99.90
23156;DHT22;11746;50.876;4.246;2023-05-10T00:10:12;13.10;99.90
23156;DHT22;11746;50.876;4.246;2023-05-10T00:12:38;13.10;99.90
23156;DHT22;11746;50.876;4.246;2023-05-10T00:15:04;13.20;99.90
23156;DHT22;11746;50.876;4.246;2023-05-10T00:17:30;13.30;99.90
23156;DHT22;11746;50.876;4.246;2023-05-10T00:19:56;13.30;99.90
23156;DHT22;11746;50.876;4.246;2023-05-10T00:22:23;13.30;99.90
23156;DHT22;11746;50.876;4.246;2023-05-10T00:24:48;13.20;99.90
23156;DHT22;11746;50.876;4.246;2023-05-10T00:27:14;13.40;99.90
23156;DHT22;11746;50.876;4.246;2023-05-10T00:29:40;13.40;99.90
23156;DHT22;11746;50.876;4.246;2023-05-10T00:32:06;13.50;99.90
23156;DHT22;11746;50.876;4.246;2023-05-10T00:34:32;13.40;99.90
23156;DHT22;11746;50.876;4.246;2023-05-10T00:36:58;13.40;99.90
23156;DHT22;11746;50.876;4.246;2023-05-10T00:39:24;13.40;99.90
23156;DHT22;11746;50.876;4.246;2023-05-10T00:41:52;13.40;99.90
23156;DHT22;11746;50.876;4.246;2023-05-10T00:44:17;13.50;99.90
23156;DHT22;11746;50.876;4.246;2023-05-10T00:46:44;13.40;99.90
23156;DHT22;11746;50.876;4.246;2023-05-10T00:49:11;13.40;99.90
23156;DHT22;11746;50.876;4.246;2023-05-10T00:51:37;13.30;99.90
23156;DHT22;11746;50.876;4.246;2023-05-10T00:54:03;13.30;99.90
23156;DHT22;11746;50.876;4.246;2023-05-10T00:56:29;13.30;99.90
23156;DHT22;11746;50.876;4.246;2023-05-10T00:58:55;13.30;99.90
23156;DHT22;11746;50.876;4.246;2023-05-10T01:01:22;13.40;99.90
23156;DHT22;11746;50.876;4.246;2023-05-10T01:03:48;13.40;99.90
23156;DHT22;11746;50.876;4.246;2023-05-10T01:06:14;13.40;99.90
23156;DHT22;11746;50.876;4.246;2023-05-10T01:08:40;13.40;99.90
23156;DHT22;11746;50.876;4.246;2023-05-10T01:11:06;13.10;99.90
23156;DHT22;11746;50.876;4.246;2023-05-10T01:13:42;13.20;99.90
23156;DHT22;11746;50.876;4.246;2023-05-10T01:16:08;13.30;99.90
23156;DHT22;11746;50.876;4.246;2023-05-10T01:18:44;13.30;99.90
23156;DHT22;11746;50.876;4.246;2023-05-10T01:24:18;13.40;99.90
23156;DHT22;11746;50.876;4.246;2023-05-10T01:37:29;13.30;99.90
23156;DHT22;11746;50.876;4.246;2023-05-10T01:40:15;13.20;99.90
23156;DHT22;11746;50.876;4.246;2023-05-10T01:42:51;13.20;99.90
23156;DHT22;11746;50.876;4.246;2023-05-10T01:45:33;13.20;99.90
23156;DHT22;11746;50.876;4.246;2023-05-10T01:48:11;13.10;99.90
23156;DHT22;11746;50.876;4.246;2023-05-10T01:50:42;13.20;99.90
23156;DHT22;11746;50.876;4.246;2023-05-10T01:53:10;13.20;99.90
23156;DHT22;11746;50.876;4.246;2023-05-10T01:55:44;13.10;99.90
23156;DHT22;11746;50.876;4.246;2023-05-10T01:58:44;13.20;99.90
23156;DHT22;11746;50.876;4.246;2023-05-10T02:01:12;13.10;99.90
23156;DHT22;11746;50.876;4.246;2023-05-10T02:03:40;13.20;99.90
23156;DHT22;11746;50.876;4.246;2023-05-10T02:06:09;13.10;99.90
23156;DHT22;11746;50.876;4.246;2023-05-10T02:08:36;13.00;99.90
23156;DHT22;11746;50.876;4.246;2023-05-10T02:11:03;13.10;99.90
23156;DHT22;11746;50.876;4.246;2023-05-10T02:13:32;13.10;99.90
23156;DHT22;11746;50.876;4.246;2023-05-10T02:15:59;13.10;99.90
23156;DHT22;11746;50.876;4.246;2023-05-10T02:18:27;13.10;99.90
23156;DHT22;11746;50.876;4.246;2023-05-10T02:20:54;13.10;99.90
23156;DHT22;11746;50.876;4.246;2023-05-10T02:23:21;12.90;99.90
23156;DHT22;11746;50.876;4.246;2023-05-10T02:25:48;12.90;99.90
23156;DHT22;11746;50.876;4.246;2023-05-10T02:28:16;12.90;99.90
23156;DHT22;11746;50.876;4.246;2023-05-10T02:30:43;12.90;99.90
23156;DHT22;11746;50.876;4.246;2023-05-10T02:33:09;12.80;99.90
23156;DHT22;11746;50.876;4.246;2023-05-10T02:35:36;12.80;99.90
23156;DHT22;11746;50.876;4.246;2023-05-10T02:38:04;12.80;99.90
23156;DHT22;11746;50.876;4.246;2023-05-10T02:40:31;12.80;99.90
23156;DHT22;11746;50.876;4.246;2023-05-10T02:42:59;12.80;99.90
23156;DHT22;11746;50.876;4.246;2023-05-10T02:45:29;12.80;99.90
23156;DHT22;11746;50.876;4.246;2023-05-10T02:47:56;12.90;99.90
23156;DHT22;11746;50.876;4.246;2023-05-10T02:50:26;13.00;99.90
23156;DHT22;11746;50.876;4.246;2023-05-10T02:52:59;13.10;99.90
23156;DHT22;11746;50.876;4.246;2023-05-10T02:55:35;13.00;99.90
23156;DHT22;11746;50.876;4.246;2023-05-10T02:58:02;12.90;99.90
23156;DHT22;11746;50.876;4.246;2023-05-10T03:00:28;13.00;99.90
23156;DHT22;11746;50.876;4.246;2023-05-10T03:02:55;12.90;99.90
23156;DHT22;11746;50.876;4.246;2023-05-10T03:05:21;12.80;99.90
23156;DHT22;11746;50.876;4.246;2023-05-10T03:07:47;12.80;99.90
23156;DHT22;11746;50.876;4.246;2023-05-10T03:10:13;12.90;99.90
23156;DHT22;11746;50.876;4.246;2023-05-10T03:13:06;12.80;99.90
23156;DHT22;11746;50.876;4.246;2023-05-10T03:15:46;12.90;99.90
23156;DHT22;11746;50.876;4.246;2023-05-10T03:18:21;12.90;99.90
23156;DHT22;11746;50.876;4.246;2023-05-10T03:20:49;12.90;99.90
23156;DHT22;11746;50.876;4.246;2023-05-10T03:23:51;12.80;99.90
23156;DHT22;11746;50.876;4.246;2023-05-10T03:26:26;12.80;99.90
23156;DHT22;11746;50.876;4.246;2023-05-10T03:28:52;12.70;99.90
23156;DHT22;11746;50.876;4.246;2023-05-10T03:31:19;12.70;99.90
23156;DHT22;11746;50.876;4.246;2023-05-10T03:33:49;12.70;99.90
23156;DHT22;11746;50.876;4.246;2023-05-10T03:36:15;12.70;99.90
23156;DHT22;11746;50.876;4.246;2023-05-10T03:38:41;12.70;99.90
23156;DHT22;11746;50.876;4.246;2023-05-10T03:41:10;12.70;99.90
23156;DHT22;11746;50.876;4.246;2023-05-10T03:43:35;12.80;99.90
23156;DHT22;11746;50.876;4.246;2023-05-10T03:46:05;12.80;99.90
23156;DHT22;11746;50.876;4.246;2023-05-10T03:48:32;12.90;99.90
23156;DHT22;11746;50.876;4.246;2023-05-10T03:50:58;12.80;99.90
23156;DHT22;11746;50.876;4.246;2023-05-10T03:53:24;12.80;99.90
23156;DHT22;11746;50.876;4.246;2023-05-10T03:55:50;12.90;99.90
23156;DHT22;11746;50.876;4.246;2023-05-10T03:58:16;12.80;99.90
23156;DHT22;11746;50.876;4.246;2023-05-10T04:00:42;12.70;99.90
23156;DHT22;11746;50.876;4.246;2023-05-10T04:03:11;12.70;99.90
23156;DHT22;11746;50.876;4.246;2023-05-10T04:05:38;12.80;99.90
23156;DHT22;11746;50.876;4.246;2023-05-10T04:08:04;12.80;99.90
23156;DHT22;11746;50.876;4.246;2023-05-10T04:10:31;12.80;99.90
23156;DHT22;11746;50.876;4.246;2023-05-10T04:12:57;12.80;99.90
23156;DHT22;11746;50.876;4.246;2023-05-10T04:15:23;12.80;99.90
23156;DHT22;11746;50.876;4.246;2023-05-10T04:17:49;12.80;99.90
23156;DHT22;11746;50.876;4.246;2023-05-10T04:20:16;12.80;99.90
23156;DHT22;11746;50.876;4.246;2023-05-10T04:22:42;12.80;99.90
23156;DHT22;11746;50.876;4.246;2023-05-10T04:25:08;12.80;99.90
23156;DHT22;11746;50.876;4.246;2023-05-10T04:27:34;12.80;99.90
23156;DHT22;11746;50.876;4.246;2023-05-10T04:30:00;12.80;99.90
23156;DHT22;11746;50.876;4.246;2023-05-10T04:32:26;12.80;99.90
23156;DHT22;11746;50.876;4.246;2023-05-10T04:34:52;12.80;99.90
23156;DHT22;11746;50.876;4.246;2023-05-10T04:37:18;12.70;99.90
23156;DHT22;11746;50.876;4.246;2023-05-10T04:39:45;12.70;99.90
23156;DHT22;11746;50.876;4.246;2023-05-10T04:42:11;12.70;99.90
23156;DHT22;11746;50.876;4.246;2023-05-10T04:44:37;12.80;99.90
23156;DHT22;11746;50.876;4.246;2023-05-10T04:47:03;12.80;99.90
23156;DHT22;11746;50.876;4.246;2023-05-10T04:49:29;12.80;99.90
23156;DHT22;11746;50.876;4.246;2023-05-10T04:51:55;12.80;99.90
23156;DHT22;11746;50.876;4.246;2023-05-10T04:54:21;12.80;99.90
23156;DHT22;11746;50.876;4.246;2023-05-10T04:56:47;12.80;99.90
23156;DHT22;11746;50.876;4.246;2023-05-10T04:59:13;12.80;99.90
23156;DHT22;11746;50.876;4.246;2023-05-10T05:01:39;12.80;99.90
23156;DHT22;11746;50.876;4.246;2023-05-10T05:04:05;12.80;99.90
23156;DHT22;11746;50.876;4.246;2023-05-10T05:06:32;12.90;99.90
23156;DHT22;11746;50.876;4.246;2023-05-10T05:08:58;12.90;99.90
23156;DHT22;11746;50.876;4.246;2023-05-10T05:11:26;13.00;99.90
23156;DHT22;11746;50.876;4.246;2023-05-10T05:13:52;13.10;99.90
23156;DHT22;11746;50.876;4.246;2023-05-10T05:16:18;13.20;99.90
23156;DHT22;11746;50.876;4.246;2023-05-10T05:18:44;13.20;99.90
23156;DHT22;11746;50.876;4.246;2023-05-10T05:21:19;13.30;99.90
23156;DHT22;11746;50.876;4.246;2023-05-10T05:23:45;13.40;99.90
23156;DHT22;11746;50.876;4.246;2023-05-10T05:26:11;13.20;99.90
23156;DHT22;11746;50.876;4.246;2023-05-10T05:28:37;13.10;99.90
23156;DHT22;11746;50.876;4.246;2023-05-10T05:31:04;13.00;99.90
23156;DHT22;11746;50.876;4.246;2023-05-10T05:33:31;13.10;99.90
23156;DHT22;11746;50.876;4.246;2023-05-10T05:35:57;12.90;99.90
23156;DHT22;11746;50.876;4.246;2023-05-10T05:38:23;12.90;99.90
23156;DHT22;11746;50.876;4.246;2023-05-10T05:40:49;12.80;99.90
23156;DHT22;11746;50.876;4.246;2023-05-10T05:43:15;12.70;99.90
23156;DHT22;11746;50.876;4.246;2023-05-10T05:45:41;12.80;99.90
23156;DHT22;11746;50.876;4.246;2023-05-10T05:48:07;12.70;99.90
23156;DHT22;11746;50.876;4.246;2023-05-10T05:50:32;12.60;99.90
23156;DHT22;11746;50.876;4.246;2023-05-10T05:52:58;12.60;99.90
23156;DHT22;11746;50.876;4.246;2023-05-10T05:55:24;12.70;99.90
23156;DHT22;11746;50.876;4.246;2023-05-10T05:57:51;12.70;99.90
23156;DHT22;11746;50.876;4.246;2023-05-10T06:00:17;12.70;99.90
23156;DHT22;11746;50.876;4.246;2023-05-10T06:02:43;12.70;99.90
23156;DHT22;11746;50.876;4.246;2023-05-10T06:05:09;12.70;99.90
23156;DHT22;11746;50.876;4.246;2023-05-10T06:07:35;12.70;99.90
23156;DHT22;11746;50.876;4.246;2023-05-10T06:10:01;12.80;99.90
23156;DHT22;11746;50.876;4.246;2023-05-10T06:12:28;12.70;99.90
23156;DHT22;11746;50.876;4.246;2023-05-10T06:14:54;12.70;99.90
23156;DHT22;11746;50.876;4.246;2023-05-10T06:17:20;12.60;99.90
23156;DHT22;11746;50.876;4.246;2023-05-10T06:19:47;12.70;99.90
23156;DHT22;11746;50.876;4.246;2023-05-10T06:22:13;12.60;99.90
23156;DHT22;11746;50.876;4.246;2023-05-10T06:24:38;12.60;99.90
23156;DHT22;11746;50.876;4.246;2023-05-10T06:27:05;12.60;99.90
23156;DHT22;11746;50.876;4.246;2023-05-10T06:29:31;12.70;99.90
23156;DHT22;11746;50.876;4.246;2023-05-10T06:31:57;12.60;99.90
23156;DHT22;11746;50.876;4.246;2023-05-10T06:34:23;12.60;99.90
23156;DHT22;11746;50.876;4.246;2023-05-10T06:36:49;12.60;99.90
23156;DHT22;11746;50.876;4.246;2023-05-10T06:39:15;12.60;99.90
23156;DHT22;11746;50.876;4.246;2023-05-10T06:41:43;12.70;99.90
23156;DHT22;11746;50.876;4.246;2023-05-10T06:44:09;12.60;99.90
23156;DHT22;11746;50.876;4.246;2023-05-10T06:46:35;12.60;99.90
23156;DHT22;11746;50.876;4.246;2023-05-10T06:49:01;12.70;99.90
23156;DHT22;11746;50.876;4.246;2023-05-10T06:51:27;12.80;99.90
23156;DHT22;11746;50.876;4.246;2023-05-10T06:53:53;12.70;99.90
23156;DHT22;11746;50.876;4.246;2023-05-10T06:56:19;12.80;99.90
23156;DHT22;11746;50.876;4.246;2023-05-10T06:58:50;12.80;99.90
23156;DHT22;11746;50.876;4.246;2023-05-10T07:01:16;12.80;99.90
23156;DHT22;11746;50.876;4.246;2023-05-10T07:03:41;12.70;99.90
23156;DHT22;11746;50.876;4.246;2023-05-10T07:06:07;12.80;99.90
23156;DHT22;11746;50.876;4.246;2023-05-10T07:08:34;12.80;99.90
23156;DHT22;11746;50.876;4.246;2023-05-10T07:11:05;12.70;99.90
23156;DHT22;11746;50.876;4.246;2023-05-10T07:13:32;12.80;99.90
23156;DHT22;11746;50.876;4.246;2023-05-10T07:16:00;12.90;99.90
23156;DHT22;11746;50.876;4.246;2023-05-10T07:18:26;12.80;99.90
23156;DHT22;11746;50.876;4.246;2023-05-10T07:20:52;12.70;99.90
23156;DHT22;11746;50.876;4.246;2023-05-10T07:23:18;12.80;99.90
23156;DHT22;11746;50.876;4.246;2023-05-10T07:25:46;13.00;99.90
23156;DHT22;11746;50.876;4.246;2023-05-10T07:28:13;13.10;99.90
23156;DHT22;11746;50.876;4.246;2023-05-10T07:30:39;12.80;99.90
23156;DHT22;11746;50.876;4.246;2023-05-10T07:33:05;12.90;99.90
23156;DHT22;11746;50.876;4.246;2023-05-10T07:35:32;12.90;99.90
23156;DHT22;11746;50.876;4.246;2023-05-10T07:37:58;12.80;99.90
23156;DHT22;11746;50.876;4.246;2023-05-10T07:40:24;12.60;99.90
23156;DHT22;11746;50.876;4.246;2023-05-10T07:42:50;12.60;99.90
23156;DHT22;11746;50.876;4.246;2023-05-10T07:45:16;12.70;99.90
23156;DHT22;11746;50.876;4.246;2023-05-10T07:47:42;12.80;99.90
23156;DHT22;11746;50.876;4.246;2023-05-10T07:50:08;12.60;99.90
23156;DHT22;11746;50.876;4.246;2023-05-10T07:52:34;12.60;99.90
23156;DHT22;11746;50.876;4.246;2023-05-10T07:55:00;12.40;99.90
23156;DHT22;11746;50.876;4.246;2023-05-10T07:57:26;12.40;99.90
23156;DHT22;11746;50.876;4.246;2023-05-10T07:59:51;12.30;99.90
23156;DHT22;11746;50.876;4.246;2023-05-10T08:02:17;12.30;99.90
23156;DHT22;11746;50.876;4.246;2023-05-10T08:04:43;12.40;99.90
23156;DHT22;11746;50.876;4.246;2023-05-10T08:07:09;12.50;99.90
23156;DHT22;11746;50.876;4.246;2023-05-10T08:09:36;12.60;99.90
23156;DHT22;11746;50.876;4.246;2023-05-10T08:12:04;12.70;99.90
23156;DHT22;11746;50.876;4.246;2023-05-10T08:14:30;12.60;99.90
23156;DHT22;11746;50.876;4.246;2023-05-10T08:16:56;12.60;99.90
23156;DHT22;11746;50.876;4.246;2023-05-10T08:19:22;12.50;99.90
23156;DHT22;11746;50.876;4.246;2023-05-10T08:21:48;12.50;99.90
23156;DHT22;11746;50.876;4.246;2023-05-10T08:24:14;12.40;99.90
23156;DHT22;11746;50.876;4.246;2023-05-10T08:26:40;12.50;99.90
23156;DHT22;11746;50.876;4.246;2023-05-10T08:29:06;12.60;99.90
23156;DHT22;11746;50.876;4.246;2023-05-10T08:31:32;12.70;99.90
23156;DHT22;11746;50.876;4.246;2023-05-10T08:33:58;12.60;99.90
23156;DHT22;11746;50.876;4.246;2023-05-10T08:36:24;12.60;99.90
23156;DHT22;11746;50.876;4.246;2023-05-10T08:38:54;12.80;99.90
23156;DHT22;11746;50.876;4.246;2023-05-10T08:41:21;12.70;99.90
23156;DHT22;11746;50.876;4.246;2023-05-10T08:43:47;12.90;99.90
23156;DHT22;11746;50.876;4.246;2023-05-10T08:46:18;12.80;99.90
23156;DHT22;11746;50.876;4.246;2023-05-10T08:48:46;12.70;99.90
23156;DHT22;11746;50.876;4.246;2023-05-10T08:51:18;12.70;99.90
23156;DHT22;11746;50.876;4.246;2023-05-10T08:53:45;12.70;99.90
23156;DHT22;11746;50.876;4.246;2023-05-10T08:56:11;12.60;99.90
23156;DHT22;11746;50.876;4.246;2023-05-10T08:58:38;12.50;99.90
23156;DHT22;11746;50.876;4.246;2023-05-10T09:01:05;12.60;99.90
23156;DHT22;11746;50.876;4.246;2023-05-10T09:03:31;12.60;99.90
23156;DHT22;11746;50.876;4.246;2023-05-10T09:05:58;12.60;99.90
23156;DHT22;11746;50.876;4.246;2023-05-10T09:08:25;12.60;99.90
23156;DHT22;11746;50.876;4.246;2023-05-10T09:10:55;12.60;99.90
23156;DHT22;11746;50.876;4.246;2023-05-10T09:13:22;12.80;99.90
23156;DHT22;11746;50.876;4.246;2023-05-10T09:15:48;12.80;99.90
23156;DHT22;11746;50.876;4.246;2023-05-10T09:18:15;12.70;99.90
23156;DHT22;11746;50.876;4.246;2023-05-10T09:20:41;12.80;99.90
23156;DHT22;11746;50.876;4.246;2023-05-10T09:23:08;12.70;99.90
23156;DHT22;11746;50.876;4.246;2023-05-10T09:25:34;12.70;99.90
23156;DHT22;11746;50.876;4.246;2023-05-10T09:28:00;12.70;99.90
23156;DHT22;11746;50.876;4.246;2023-05-10T09:30:30;12.70;99.90
23156;DHT22;11746;50.876;4.246;2023-05-10T09:32:58;12.80;99.90
23156;DHT22;11746;50.876;4.246;2023-05-10T09:35:27;12.80;99.90
23156;DHT22;11746;50.876;4.246;2023-05-10T09:38:02;12.80;99.90
23156;DHT22;11746;50.876;4.246;2023-05-10T09:40:29;12.80;99.90
23156;DHT22;11746;50.876;4.246;2023-05-10T09:43:01;12.90;99.90
23156;DHT22;11746;50.876;4.246;2023-05-10T09:45:29;12.90;99.90
23156;DHT22;11746;50.876;4.246;2023-05-10T09:47:56;13.00;99.90
23156;DHT22;11746;50.876;4.246;2023-05-10T09:50:22;12.90;99.90
23156;DHT22;11746;50.876;4.246;2023-05-10T09:52:59;13.10;99.90
23156;DHT22;11746;50.876;4.246;2023-05-10T09:55:42;13.20;99.90
23156;DHT22;11746;50.876;4.246;2023-05-10T09:58:15;13.20;99.90
23156;DHT22;11746;50.876;4.246;2023-05-10T10:00:43;13.10;99.90
23156;DHT22;11746;50.876;4.246;2023-05-10T10:03:18;13.10;99.90
23156;DHT22;11746;50.876;4.246;2023-05-10T10:05:44;13.00;99.90
23156;DHT22;11746;50.876;4.246;2023-05-10T10:08:11;13.10;99.90
23156;DHT22;11746;50.876;4.246;2023-05-10T10:10:38;13.30;99.90
23156;DHT22;11746;50.876;4.246;2023-05-10T10:13:07;13.30;99.90
23156;DHT22;11746;50.876;4.246;2023-05-10T10:15:34;13.30;99.90
23156;DHT22;11746;50.876;4.246;2023-05-10T10:18:01;13.40;99.90
23156;DHT22;11746;50.876;4.246;2023-05-10T10:20:29;13.50;99.90
23156;DHT22;11746;50.876;4.246;2023-05-10T10:22:55;13.70;99.90
23156;DHT22;11746;50.876;4.246;2023-05-10T10:25:21;13.70;99.90
23156;DHT22;11746;50.876;4.246;2023-05-10T10:35:30;13.40;99.90
23156;DHT22;11746;50.876;4.246;2023-05-10T10:37:57;13.40;99.90
23156;DHT22;11746;50.876;4.246;2023-05-10T10:40:26;13.40;99.90
23156;DHT22;11746;50.876;4.246;2023-05-10T10:42:52;13.50;99.90
23156;DHT22;11746;50.876;4.246;2023-05-10T10:45:20;13.60;99.90
23156;DHT22;11746;50.876;4.246;2023-05-10T10:47:46;13.80;99.90
23156;DHT22;11746;50.876;4.246;2023-05-10T10:50:13;14.00;99.90
23156;DHT22;11746;50.876;4.246;2023-05-10T10:52:40;14.00;99.90
23156;DHT22;11746;50.876;4.246;2023-05-10T11:00:28;14.30;99.90
23156;DHT22;11746;50.876;4.246;2023-05-10T11:03:12;14.30;99.90
23156;DHT22;11746;50.876;4.246;2023-05-10T11:10:53;14.20;99.90
23156;DHT22;11746;50.876;4.246;2023-05-10T11:16:09;14.10;99.90
23156;DHT22;11746;50.876;4.246;2023-05-10T11:18:37;14.00;99.90
23156;DHT22;11746;50.876;4.246;2023-05-10T11:21:03;14.00;99.90
23156;DHT22;11746;50.876;4.246;2023-05-10T11:26:07;14.20;99.90
23156;DHT22;11746;50.876;4.246;2023-05-10T11:28:47;14.10;99.90
23156;DHT22;11746;50.876;4.246;2023-05-10T11:31:14;14.10;99.90
23156;DHT22;11746;50.876;4.246;2023-05-10T11:33:45;14.20;99.90
23156;DHT22;11746;50.876;4.246;2023-05-10T11:36:13;14.30;99.90
23156;DHT22;11746;50.876;4.246;2023-05-10T11:38:40;14.00;99.90
23156;DHT22;11746;50.876;4.246;2023-05-10T11:41:08;14.00;99.90
23156;DHT22;11746;50.876;4.246;2023-05-10T11:43:35;14.20;99.90
23156;DHT22;11746;50.876;4.246;2023-05-10T11:46:13;14.20;99.90
23156;DHT22;11746;50.876;4.246;2023-05-10T11:48:40;14.30;99.90
23156;DHT22;11746;50.876;4.246;2023-05-10T11:51:10;14.20;99.90
23156;DHT22;11746;50.876;4.246;2023-05-10T11:53:36;14.20;99.90
23156;DHT22;11746;50.876;4.246;2023-05-10T11:56:10;14.30;99.90
23156;DHT22;11746;50.876;4.246;2023-05-10T11:58:37;14.30;99.90
23156;DHT22;11746;50.876;4.246;2023-05-10T12:01:06;14.50;99.90
23156;DHT22;11746;50.876;4.246;2023-05-10T12:03:32;14.40;99.90
23156;DHT22;11746;50.876;4.246;2023-05-10T12:06:01;14.10;99.90
23156;DHT22;11746;50.876;4.246;2023-05-10T12:08:30;14.10;99.90
23156;DHT22;11746;50.876;4.246;2023-05-10T12:11:09;14.10;99.90
23156;DHT22;11746;50.876;4.246;2023-05-10T12:13:39;14.10;99.90
23156;DHT22;11746;50.876;4.246;2023-05-10T12:16:22;14.10;99.90
23156;DHT22;11746;50.876;4.246;2023-05-10T12:18:49;14.20;99.90
23156;DHT22;11746;50.876;4.246;2023-05-10T12:21:16;14.20;99.90
23156;DHT22;11746;50.876;4.246;2023-05-10T12:23:45;14.10;99.90
23156;DHT22;11746;50.876;4.246;2023-05-10T12:26:11;14.00;99.90
23156;DHT22;11746;50.876;4.246;2023-05-10T12:28:37;14.10;99.90
23156;DHT22;11746;50.876;4.246;2023-05-10T12:31:06;14.20;99.90
23156;DHT22;11746;50.876;4.246;2023-05-10T12:33:43;14.20;99.90
23156;DHT22;11746;50.876;4.246;2023-05-10T12:36:10;14.20;99.90
23156;DHT22;11746;50.876;4.246;2023-05-10T12:41:07;14.30;99.90
23156;DHT22;11746;50.876;4.246;2023-05-10T12:43:34;14.40;99.90
23156;DHT22;11746;50.876;4.246;2023-05-10T12:46:14;14.60;99.90
23156;DHT22;11746;50.876;4.246;2023-05-10T12:48:41;14.40;99.90
23156;DHT22;11746;50.876;4.246;2023-05-10T12:51:08;14.50;99.90
23156;DHT22;11746;50.876;4.246;2023-05-10T12:53:38;14.60;99.90
23156;DHT22;11746;50.876;4.246;2023-05-10T12:56:04;14.70;99.90
23156;DHT22;11746;50.876;4.246;2023-05-10T12:58:32;14.90;99.90
23156;DHT22;11746;50.876;4.246;2023-05-10T13:01:00;15.10;99.90
23156;DHT22;11746;50.876;4.246;2023-05-10T13:03:26;15.20;99.90
23156;DHT22;11746;50.876;4.246;2023-05-10T13:05:52;15.10;99.90
23156;DHT22;11746;50.876;4.246;2023-05-10T13:08:20;15.10;99.90
23156;DHT22;11746;50.876;4.246;2023-05-10T13:10:45;15.10;99.90
23156;DHT22;11746;50.876;4.246;2023-05-10T13:13:11;15.20;99.90
23156;DHT22;11746;50.876;4.246;2023-05-10T13:15:39;15.30;99.90
23156;DHT22;11746;50.876;4.246;2023-05-10T13:18:05;15.50;99.90
23156;DHT22;11746;50.876;4.246;2023-05-10T13:20:30;15.60;99.90
23156;DHT22;11746;50.876;4.246;2023-05-10T13:22:58;15.50;99.90
23156;DHT22;11746;50.876;4.246;2023-05-10T13:25:24;15.50;99.90
23156;DHT22;11746;50.876;4.246;2023-05-10T13:27:50;15.50;99.90
23156;DHT22;11746;50.876;4.246;2023-05-10T13:30:16;15.60;99.90
23156;DHT22;11746;50.876;4.246;2023-05-10T13:32:42;15.50;99.90
23156;DHT22;11746;50.876;4.246;2023-05-10T13:35:08;15.50;99.90
23156;DHT22;11746;50.876;4.246;2023-05-10T13:37:34;15.30;99.90
23156;DHT22;11746;50.876;4.246;2023-05-10T13:40:03;15.30;99.90
23156;DHT22;11746;50.876;4.246;2023-05-10T13:42:30;15.40;99.90
23156;DHT22;11746;50.876;4.246;2023-05-10T13:44:57;15.50;99.90
23156;DHT22;11746;50.876;4.246;2023-05-10T13:47:23;15.50;99.90
23156;DHT22;11746;50.876;4.246;2023-05-10T13:49:48;15.70;99.90
23156;DHT22;11746;50.876;4.246;2023-05-10T13:52:14;15.80;99.90
23156;DHT22;11746;50.876;4.246;2023-05-10T13:54:40;15.90;99.90
23156;DHT22;11746;50.876;4.246;2023-05-10T13:57:07;16.20;99.90
23156;DHT22;11746;50.876;4.246;2023-05-10T13:59:33;16.30;99.90
23156;DHT22;11746;50.876;4.246;2023-05-10T14:01:59;16.40;99.90
23156;DHT22;11746;50.876;4.246;2023-05-10T14:04:25;16.40;99.90
23156;DHT22;11746;50.876;4.246;2023-05-10T14:06:51;16.40;99.90
23156;DHT22;11746;50.876;4.246;2023-05-10T14:09:18;16.30;99.90
23156;DHT22;11746;50.876;4.246;2023-05-10T14:11:45;16.00;99.90
23156;DHT22;11746;50.876;4.246;2023-05-10T14:14:11;16.10;99.90
23156;DHT22;11746;50.876;4.246;2023-05-10T14:16:38;16.30;99.90
23156;DHT22;11746;50.876;4.246;2023-05-10T14:19:04;16.30;99.90
23156;DHT22;11746;50.876;4.246;2023-05-10T14:21:29;16.20;99.90
23156;DHT22;11746;50.876;4.246;2023-05-10T14:23:56;16.00;99.90
23156;DHT22;11746;50.876;4.246;2023-05-10T14:26:22;16.00;99.90
23156;DHT22;11746;50.876;4.246;2023-05-10T14:28:48;15.90;99.90
23156;DHT22;11746;50.876;4.246;2023-05-10T14:31:14;15.90;99.90
23156;DHT22;11746;50.876;4.246;2023-05-10T14:33:42;15.80;99.90
23156;DHT22;11746;50.876;4.246;2023-05-10T14:36:08;15.70;99.90
23156;DHT22;11746;50.876;4.246;2023-05-10T14:38:34;15.60;99.90
23156;DHT22;11746;50.876;4.246;2023-05-10T14:41:00;15.50;99.90
23156;DHT22;11746;50.876;4.246;2023-05-10T14:43:26;15.40;99.90
23156;DHT22;11746;50.876;4.246;2023-05-10T14:45:53;15.40;99.90
23156;DHT22;11746;50.876;4.246;2023-05-10T14:48:19;15.10;99.90
23156;DHT22;11746;50.876;4.246;2023-05-10T14:50:46;14.80;99.90
23156;DHT22;11746;50.876;4.246;2023-05-10T14:53:12;14.60;99.90
23156;DHT22;11746;50.876;4.246;2023-05-10T14:55:38;14.50;99.90
23156;DHT22;11746;50.876;4.246;2023-05-10T14:58:04;14.30;99.90
23156;DHT22;11746;50.876;4.246;2023-05-10T15:00:31;14.20;99.90
23156;DHT22;11746;50.876;4.246;2023-05-10T15:02:57;13.90;99.90
23156;DHT22;11746;50.876;4.246;2023-05-10T15:05:23;13.70;99.90
23156;DHT22;11746;50.876;4.246;2023-05-10T15:07:49;13.70;99.90
23156;DHT22;11746;50.876;4.246;2023-05-10T15:10:15;13.80;99.90
23156;DHT22;11746;50.876;4.246;2023-05-10T15:12:41;13.80;99.90
23156;DHT22;11746;50.876;4.246;2023-05-10T15:15:07;13.80;99.90
23156;DHT22;11746;50.876;4.246;2023-05-10T15:17:33;13.80;99.90
23156;DHT22;11746;50.876;4.246;2023-05-10T15:20:00;13.80;99.90
23156;DHT22;11746;50.876;4.246;2023-05-10T15:22:28;13.80;99.90
23156;DHT22;11746;50.876;4.246;2023-05-10T15:24:55;13.90;99.90
23156;DHT22;11746;50.876;4.246;2023-05-10T15:27:21;13.90;99.90
23156;DHT22;11746;50.876;4.246;2023-05-10T15:29:47;13.90;99.90
23156;DHT22;11746;50.876;4.246;2023-05-10T15:32:13;14.00;99.90
23156;DHT22;11746;50.876;4.246;2023-05-10T15:34:39;14.00;99.90
23156;DHT22;11746;50.876;4.246;2023-05-10T15:37:05;14.00;99.90
23156;DHT22;11746;50.876;4.246;2023-05-10T15:39:31;14.10;99.90
23156;DHT22;11746;50.876;4.246;2023-05-10T15:41:57;14.10;99.90
23156;DHT22;11746;50.876;4.246;2023-05-10T15:44:23;14.30;99.90
23156;DHT22;11746;50.876;4.246;2023-05-10T15:46:49;14.40;99.90
23156;DHT22;11746;50.876;4.246;2023-05-10T15:49:16;14.50;99.90
23156;DHT22;11746;50.876;4.246;2023-05-10T15:51:41;14.50;99.90
23156;DHT22;11746;50.876;4.246;2023-05-10T15:54:07;14.60;99.90
23156;DHT22;11746;50.876;4.246;2023-05-10T15:56:33;14.70;99.90
23156;DHT22;11746;50.876;4.246;2023-05-10T15:58:59;14.80;99.90
23156;DHT22;11746;50.876;4.246;2023-05-10T16:01:25;14.80;99.90
23156;DHT22;11746;50.876;4.246;2023-05-10T16:03:51;14.90;99.90
23156;DHT22;11746;50.876;4.246;2023-05-10T16:06:17;14.90;99.90
23156;DHT22;11746;50.876;4.246;2023-05-10T16:08:43;14.90;99.90
23156;DHT22;11746;50.876;4.246;2023-05-10T16:11:09;14.90;99.90